createdAt,value
2023-05-15T00:01:08.950Z,8.10
2023-05-15T00:03:36.446Z,8.60
2023-05-15T00:06:04.146Z,7.03
2023-05-15T00:08:31.789Z,7.80
2023-05-15T00:11:01.900Z,8.90
2023-05-15T00:13:30.455Z,7.00
2023-05-15T00:15:58.026Z,6.60
2023-05-15T00:18:25.470Z,6.53
2023-05-15T00:20:54.355Z,7.23
2023-05-15T00:23:22.163Z,6.27
2023-05-15T00:25:49.693Z,6.57
2023-05-15T00:28:17.031Z,7.90
2023-05-15T00:30:44.456Z,7.70
2023-05-15T00:33:11.884Z,7.83
2023-05-15T00:35:40.854Z,7.67
2023-05-15T00:38:08.473Z,6.43
2023-05-15T00:40:38.492Z,8.20
2023-05-15T00:43:06.960Z,6.83
2023-05-15T00:45:34.933Z,6.60
2023-05-15T00:48:02.421Z,6.93
2023-05-15T00:50:30.135Z,9.43
2023-05-15T00:52:58.136Z,7.27
2023-05-15T00:55:27.082Z,7.57
2023-05-15T00:57:54.733Z,8.00
2023-05-15T01:00:23.076Z,9.00
2023-05-15T01:02:52.348Z,8.33
2023-05-15T01:05:20.027Z,7.87
2023-05-15T01:07:58.027Z,8.10
2023-05-15T01:10:25.772Z,7.90
2023-05-15T01:12:55.391Z,8.07
2023-05-15T01:15:24.635Z,7.93
2023-05-15T01:17:54.962Z,7.87
2023-05-15T01:20:24.701Z,7.07
2023-05-15T01:23:13.162Z,6.87
2023-05-15T01:25:54.143Z,6.83
2023-05-15T01:28:30.011Z,7.10
2023-05-15T01:30:58.381Z,6.90
2023-05-15T01:33:28.937Z,7.23
2023-05-15T01:36:02.624Z,7.23
2023-05-15T01:38:47.146Z,7.43
2023-05-15T01:41:32.957Z,7.73
2023-05-15T01:44:05.685Z,7.90
2023-05-15T01:46:36.800Z,8.97
2023-05-15T01:49:04.460Z,7.20
2023-05-15T01:51:32.716Z,6.67
2023-05-15T01:54:00.330Z,9.07
2023-05-15T01:56:28.246Z,7.20
2023-05-15T01:58:57.114Z,8.40
2023-05-15T02:01:24.782Z,8.10
2023-05-15T02:03:53.992Z,9.67
2023-05-15T02:06:21.894Z,8.17
2023-05-15T02:08:49.542Z,7.87
2023-05-15T02:11:17.011Z,15.03
2023-05-15T02:13:48.961Z,8.20
2023-05-15T02:16:16.505Z,7.77
2023-05-15T02:18:44.050Z,8.33
2023-05-15T02:21:12.196Z,7.70
2023-05-15T02:23:40.763Z,8.93
2023-05-15T02:26:14.160Z,9.23
2023-05-15T02:28:55.069Z,9.53
2023-05-15T02:31:28.661Z,8.73
2023-05-15T02:34:04.139Z,7.70
2023-05-15T02:36:34.000Z,7.90
2023-05-15T02:39:02.094Z,8.93
2023-05-15T02:41:30.296Z,9.70
2023-05-15T02:44:00.849Z,9.83
2023-05-15T02:46:29.673Z,9.00
2023-05-15T02:48:57.603Z,9.90
2023-05-15T02:51:25.357Z,9.43
2023-05-15T02:53:52.968Z,8.70
2023-05-15T02:56:21.020Z,9.70
2023-05-15T02:58:52.071Z,8.23
2023-05-15T03:01:19.650Z,8.93
2023-05-15T03:03:47.184Z,8.40
2023-05-15T03:06:14.688Z,8.87
2023-05-15T03:08:42.078Z,8.17
2023-05-15T03:11:09.521Z,9.27
2023-05-15T03:13:36.888Z,8.37
2023-05-15T03:16:04.626Z,9.23
2023-05-15T03:18:32.251Z,8.80
2023-05-15T03:21:00.695Z,8.93
2023-05-15T03:23:27.984Z,9.53
2023-05-15T03:25:56.214Z,9.30
2023-05-15T03:28:25.163Z,11.43
2023-05-15T03:30:52.825Z,8.67
2023-05-15T03:33:20.604Z,9.37
2023-05-15T03:35:48.588Z,10.50
2023-05-15T03:38:16.006Z,9.87
2023-05-15T03:40:43.645Z,11.10
2023-05-15T03:43:11.517Z,10.70
2023-05-15T03:45:39.428Z,9.87
2023-05-15T03:48:06.781Z,10.73
2023-05-15T03:50:34.236Z,12.73
2023-05-15T03:53:01.430Z,9.10
2023-05-15T03:55:28.653Z,8.87
2023-05-15T03:57:55.894Z,16.03
2023-05-15T04:00:23.733Z,10.70
2023-05-15T04:02:52.402Z,10.40
2023-05-15T04:05:21.571Z,9.57
2023-05-15T04:07:48.839Z,9.20
2023-05-15T04:10:16.016Z,10.53
2023-05-15T04:12:45.305Z,10.40
2023-05-15T04:15:19.812Z,11.90
2023-05-15T04:17:47.732Z,8.43
2023-05-15T04:20:17.048Z,11.13
2023-05-15T04:22:44.474Z,10.87
2023-05-15T04:25:14.902Z,11.13
2023-05-15T04:27:43.675Z,10.27
2023-05-15T04:30:11.805Z,10.47
2023-05-15T04:32:39.637Z,10.20
2023-05-15T04:35:12.467Z,14.03
2023-05-15T04:37:40.524Z,10.37
2023-05-15T04:40:08.138Z,9.40
2023-05-15T04:42:40.248Z,13.03
2023-05-15T04:45:07.887Z,10.77
2023-05-15T04:47:35.444Z,11.03
2023-05-15T04:50:04.272Z,10.63
2023-05-15T04:52:33.255Z,10.83
2023-05-15T04:55:01.369Z,10.33
2023-05-15T04:57:28.630Z,10.53
2023-05-15T04:59:55.835Z,10.50
2023-05-15T05:02:23.704Z,13.90
2023-05-15T05:04:51.111Z,14.83
2023-05-15T05:07:18.420Z,15.97
2023-05-15T05:09:45.811Z,17.70
2023-05-15T05:12:13.077Z,15.93
2023-05-15T05:14:44.629Z,12.30
2023-05-15T05:17:13.008Z,13.47
2023-05-15T05:19:40.472Z,13.27
2023-05-15T05:22:08.124Z,13.70
2023-05-15T05:24:37.418Z,13.43
2023-05-15T05:27:05.416Z,14.07
2023-05-15T05:29:32.648Z,23.13
2023-05-15T05:32:00.041Z,14.00
2023-05-15T05:34:27.444Z,13.27
2023-05-15T05:36:54.580Z,18.23
2023-05-15T05:39:21.759Z,17.70
2023-05-15T05:41:48.966Z,15.83
2023-05-15T05:44:16.564Z,11.30
2023-05-15T05:46:47.539Z,10.10
2023-05-15T05:49:14.845Z,11.60
2023-05-15T05:51:42.051Z,10.70
2023-05-15T05:54:09.295Z,10.80
2023-05-15T05:56:36.776Z,11.97
2023-05-15T05:59:04.591Z,22.80
2023-05-15T06:01:32.133Z,18.47
2023-05-15T06:03:59.383Z,17.10
2023-05-15T06:06:26.743Z,14.90
2023-05-15T06:08:56.173Z,17.90
2023-05-15T06:11:25.436Z,14.30
2023-05-15T06:13:52.926Z,12.63
2023-05-15T06:16:20.239Z,13.33
2023-05-15T06:18:47.507Z,11.10
2023-05-15T06:21:14.772Z,16.97
2023-05-15T06:23:41.985Z,16.80
2023-05-15T06:26:12.613Z,12.40
2023-05-15T06:28:41.363Z,11.03
2023-05-15T06:31:08.613Z,9.80
2023-05-15T06:33:36.027Z,12.07
2023-05-15T06:36:04.508Z,11.77
2023-05-15T06:38:31.651Z,12.20
2023-05-15T06:40:58.818Z,10.90
2023-05-15T06:43:26.012Z,10.13
2023-05-15T06:45:53.222Z,12.80
2023-05-15T06:48:20.467Z,10.03
2023-05-15T06:50:48.110Z,11.63
2023-05-15T06:53:15.305Z,10.27
2023-05-15T06:55:42.489Z,10.80
2023-05-15T06:58:09.658Z,11.50
2023-05-15T07:00:36.816Z,9.90
2023-05-15T07:03:04.123Z,9.73
2023-05-15T07:05:31.483Z,10.33
2023-05-15T07:07:58.662Z,10.20
2023-05-15T07:10:26.050Z,9.53
2023-05-15T07:12:53.817Z,9.47
2023-05-15T07:15:21.039Z,10.27
2023-05-15T07:17:48.261Z,9.40
2023-05-15T07:20:16.387Z,9.33
2023-05-15T07:22:52.351Z,11.00
2023-05-15T07:25:23.780Z,12.27
2023-05-15T07:27:51.332Z,10.63
2023-05-15T07:30:18.486Z,9.93
2023-05-15T07:32:45.692Z,11.67
2023-05-15T07:35:12.970Z,12.00
2023-05-15T07:37:41.541Z,8.80
2023-05-15T07:40:09.140Z,14.70
2023-05-15T07:42:36.330Z,8.70
2023-05-15T07:45:03.534Z,8.77
2023-05-15T07:47:31.862Z,8.03
2023-05-15T07:49:59.048Z,11.30
2023-05-15T07:52:26.244Z,7.90
2023-05-15T07:54:53.454Z,7.50
2023-05-15T07:57:20.652Z,7.70
2023-05-15T07:59:48.122Z,8.10
2023-05-15T08:02:15.306Z,17.87
2023-05-15T08:04:42.702Z,7.53
2023-05-15T08:07:10.447Z,8.20
2023-05-15T08:09:37.607Z,6.97
2023-05-15T08:12:21.526Z,7.27
2023-05-15T08:14:49.657Z,6.57
2023-05-15T08:17:16.904Z,6.57
2023-05-15T08:19:46.057Z,7.80
2023-05-15T08:22:14.244Z,7.60
2023-05-15T08:24:41.466Z,7.40
2023-05-15T08:27:09.219Z,8.03
2023-05-15T08:29:38.670Z,7.17
2023-05-15T08:32:07.579Z,7.30
2023-05-15T08:34:34.826Z,8.30
2023-05-15T08:37:02.251Z,7.40
2023-05-15T08:39:29.389Z,7.13
2023-05-15T08:42:11.573Z,11.20
2023-05-15T08:44:39.414Z,7.87
2023-05-15T08:47:07.959Z,7.83
2023-05-15T08:49:38.316Z,8.33
2023-05-15T08:52:05.739Z,8.53
2023-05-15T08:54:33.174Z,8.67
2023-05-15T08:57:01.139Z,8.67
2023-05-15T08:59:28.523Z,9.20
2023-05-15T09:01:56.453Z,8.37
2023-05-15T09:04:24.045Z,9.07
2023-05-15T09:06:51.427Z,7.83
2023-05-15T09:09:19.239Z,9.03
2023-05-15T09:11:48.575Z,7.50
2023-05-15T09:14:15.722Z,7.80
2023-05-15T09:16:43.250Z,8.87
2023-05-15T09:19:11.175Z,8.27
2023-05-15T09:21:38.382Z,8.40
2023-05-15T09:24:23.368Z,7.60
2023-05-15T09:27:11.178Z,8.37
2023-05-15T09:29:39.062Z,9.57
2023-05-15T09:32:18.655Z,8.30
2023-05-15T09:34:46.165Z,9.40
2023-05-15T09:37:27.877Z,9.83
2023-05-15T09:39:56.764Z,9.43
2023-05-15T09:42:25.725Z,8.13
2023-05-15T09:44:52.902Z,10.90
2023-05-15T09:47:20.281Z,8.47
2023-05-15T09:49:47.901Z,8.77
2023-05-15T09:52:16.286Z,8.17
2023-05-15T09:54:47.011Z,8.70
2023-05-15T09:57:15.948Z,9.00
2023-05-15T09:59:47.514Z,9.07
2023-05-15T10:02:15.385Z,9.07
2023-05-15T10:04:42.595Z,9.00
2023-05-15T10:07:10.762Z,9.33
2023-05-15T10:09:38.944Z,8.70
2023-05-15T10:12:06.677Z,8.20
2023-05-15T10:14:33.866Z,8.73
2023-05-15T10:17:01.721Z,9.13
2023-05-15T10:19:29.243Z,11.77
2023-05-15T10:21:56.700Z,10.53
2023-05-15T10:24:25.553Z,9.70
2023-05-15T10:26:55.397Z,10.60
2023-05-15T10:29:25.666Z,9.67
2023-05-15T10:31:53.069Z,11.70
2023-05-15T10:34:20.808Z,10.10
2023-05-15T10:36:51.181Z,11.43
2023-05-15T10:39:18.640Z,11.17
2023-05-15T10:41:46.514Z,10.73
2023-05-15T10:44:16.296Z,11.47
2023-05-15T10:46:43.800Z,10.77
2023-05-15T10:49:12.729Z,11.10
2023-05-15T10:51:43.290Z,11.60
2023-05-15T10:54:10.644Z,13.13
2023-05-15T10:56:38.731Z,19.33
2023-05-15T10:59:08.231Z,14.27
2023-05-15T11:01:39.646Z,13.97
2023-05-15T11:04:11.580Z,11.73
2023-05-15T11:06:39.857Z,9.70
2023-05-15T11:09:22.548Z,10.70
2023-05-15T11:11:55.703Z,11.70
2023-05-15T11:14:26.801Z,10.33
2023-05-15T11:16:54.130Z,11.80
2023-05-15T11:19:33.631Z,14.07
2023-05-15T11:22:06.419Z,14.57
2023-05-15T11:24:48.494Z,14.80
2023-05-15T11:27:26.151Z,13.33
2023-05-15T11:30:12.216Z,16.27
2023-05-15T11:32:48.740Z,14.33
2023-05-15T11:35:31.296Z,12.60
2023-05-15T11:38:05.895Z,12.90
2023-05-15T11:40:33.938Z,11.20
2023-05-15T11:43:02.285Z,12.93
2023-05-15T11:45:49.446Z,12.20
2023-05-15T11:48:18.575Z,12.03
2023-05-15T11:50:46.707Z,14.07
2023-05-15T11:53:14.680Z,11.33
2023-05-15T11:55:43.733Z,16.37
2023-05-15T11:58:18.388Z,14.57
2023-05-15T12:00:46.632Z,13.83
2023-05-15T12:03:18.081Z,16.17
2023-05-15T12:05:58.403Z,16.00
2023-05-15T12:08:27.748Z,15.20
2023-05-15T12:10:55.013Z,14.63
2023-05-15T12:13:22.405Z,15.07
2023-05-15T12:15:52.383Z,13.03
2023-05-15T12:18:19.583Z,13.33
2023-05-15T12:20:47.188Z,15.70
2023-05-15T12:23:17.918Z,18.00
2023-05-15T12:25:46.104Z,16.40
2023-05-15T12:28:13.496Z,16.17
2023-05-15T12:30:40.748Z,16.13
2023-05-15T12:33:09.384Z,19.13
2023-05-15T12:35:37.431Z,18.03
2023-05-15T12:38:05.378Z,13.83
2023-05-15T12:40:36.391Z,15.73
2023-05-15T12:43:07.455Z,15.03
2023-05-15T12:45:38.155Z,17.30
2023-05-15T12:48:07.161Z,13.33
2023-05-15T12:50:35.049Z,15.23
2023-05-15T12:53:04.242Z,13.83
2023-05-15T12:55:35.710Z,13.97
2023-05-15T12:58:08.173Z,14.10
2023-05-15T13:00:39.840Z,12.80
2023-05-15T13:03:10.018Z,12.60
2023-05-15T13:05:41.574Z,14.33
2023-05-15T13:08:08.836Z,16.03
2023-05-15T13:10:37.054Z,13.90
2023-05-15T13:13:04.842Z,10.87
2023-05-15T13:15:36.375Z,8.50
2023-05-15T13:18:04.068Z,8.53
2023-05-15T13:20:39.462Z,11.63
2023-05-15T13:23:07.841Z,12.37
2023-05-15T13:25:36.179Z,12.13
2023-05-15T13:28:05.765Z,9.73
2023-05-15T13:30:38.989Z,8.37
2023-05-15T13:33:06.171Z,9.40
2023-05-15T13:35:33.408Z,8.17
2023-05-15T13:38:00.729Z,10.83
2023-05-15T13:40:28.009Z,9.43
2023-05-15T13:42:55.607Z,8.23
2023-05-15T13:45:23.099Z,8.80
2023-05-15T13:47:52.143Z,7.50
2023-05-15T13:50:19.431Z,6.97
2023-05-15T13:52:48.132Z,6.70
2023-05-15T13:55:16.548Z,6.80
2023-05-15T13:57:44.227Z,5.87
2023-05-15T14:00:13.115Z,6.60
2023-05-15T14:02:43.286Z,6.30
2023-05-15T14:05:16.241Z,4.87
2023-05-15T14:07:43.431Z,8.67
2023-05-15T14:10:13.242Z,5.97
2023-05-15T14:12:42.388Z,7.70
2023-05-15T14:15:11.579Z,8.37
2023-05-15T14:17:38.877Z,9.10
2023-05-15T14:20:06.569Z,10.67
2023-05-15T14:22:33.869Z,9.20
2023-05-15T14:25:01.092Z,8.67
2023-05-15T14:27:28.667Z,9.70
2023-05-15T14:29:56.693Z,6.97
2023-05-15T14:32:24.813Z,6.80
2023-05-15T14:34:52.248Z,7.80
2023-05-15T14:37:22.670Z,7.60
2023-05-15T14:39:50.934Z,6.90
2023-05-15T14:42:22.056Z,8.67
2023-05-15T14:44:49.480Z,7.50
2023-05-15T14:47:16.851Z,8.60
2023-05-15T14:49:44.116Z,8.77
2023-05-15T14:52:12.258Z,8.33
2023-05-15T14:54:40.404Z,8.33
2023-05-15T14:57:09.376Z,10.87
2023-05-15T14:59:36.945Z,8.50
2023-05-15T15:02:04.237Z,10.37
2023-05-15T15:04:34.318Z,10.53
2023-05-15T15:07:04.679Z,9.63
2023-05-15T15:09:32.066Z,10.67
2023-05-15T15:11:59.648Z,12.90
2023-05-15T15:14:26.864Z,13.00
2023-05-15T15:16:54.018Z,11.30
2023-05-15T15:19:22.077Z,13.03
2023-05-15T15:21:49.380Z,13.87
2023-05-15T15:24:16.885Z,15.30
2023-05-15T15:26:44.483Z,14.07
2023-05-15T15:29:11.679Z,16.30
2023-05-15T15:31:39.160Z,15.00
2023-05-15T15:34:08.699Z,16.13
2023-05-15T15:36:38.526Z,12.67
2023-05-15T15:39:05.992Z,13.43
2023-05-15T15:41:33.199Z,12.53
2023-05-15T15:44:01.203Z,11.67
2023-05-15T15:46:28.486Z,11.60
2023-05-15T15:48:55.714Z,13.50
2023-05-15T15:51:22.926Z,12.60
2023-05-15T15:53:51.160Z,12.97
2023-05-15T15:56:19.174Z,13.20
2023-05-15T15:58:48.511Z,12.80
2023-05-15T16:01:18.997Z,12.63
2023-05-15T16:03:47.617Z,15.40
2023-05-15T16:06:14.912Z,17.73
2023-05-15T16:08:42.166Z,16.23
2023-05-15T16:11:09.380Z,12.97
2023-05-15T16:13:36.602Z,14.20
2023-05-15T16:16:04.036Z,14.90
2023-05-15T16:18:31.284Z,17.57
2023-05-15T16:20:58.510Z,18.97
2023-05-15T16:23:26.169Z,14.30
2023-05-15T16:25:54.553Z,13.73
2023-05-15T16:28:21.743Z,14.00
2023-05-15T16:30:51.024Z,12.47
2023-05-15T16:33:20.007Z,17.00
2023-05-15T16:35:47.345Z,13.53
2023-05-15T16:38:14.798Z,16.23
2023-05-15T16:40:42.040Z,15.20
2023-05-15T16:43:09.187Z,14.10
2023-05-15T16:45:36.633Z,12.40
2023-05-15T16:48:07.195Z,12.63
2023-05-15T16:50:36.409Z,13.10
2023-05-15T16:53:04.571Z,13.20
2023-05-15T16:55:31.885Z,14.23
2023-05-15T16:57:59.066Z,12.17
2023-05-15T17:00:26.499Z,13.57
2023-05-15T17:02:54.730Z,14.43
2023-05-15T17:05:22.107Z,12.60
2023-05-15T17:07:49.287Z,14.17
2023-05-15T17:10:16.537Z,12.63
2023-05-15T17:12:45.205Z,13.57
2023-05-15T17:15:13.539Z,15.50
2023-05-15T17:17:42.166Z,12.87
2023-05-15T17:20:09.788Z,14.20
2023-05-15T17:22:36.976Z,13.50
2023-05-15T17:25:04.342Z,12.70
2023-05-15T17:27:32.267Z,12.87
2023-05-15T17:29:59.577Z,12.23
2023-05-15T17:32:26.983Z,11.50
2023-05-15T17:34:54.260Z,14.60
2023-05-15T17:37:21.435Z,11.10
2023-05-15T17:39:48.613Z,12.33
2023-05-15T17:42:15.780Z,13.73
2023-05-15T17:44:43.060Z,13.60
2023-05-15T17:47:10.553Z,21.40
2023-05-15T17:49:38.903Z,51.73
2023-05-15T17:52:08.908Z,12.90
2023-05-15T17:54:38.397Z,13.27
2023-05-15T17:57:06.656Z,13.03
2023-05-15T17:59:33.859Z,12.20
2023-05-15T18:02:01.090Z,15.10
2023-05-15T18:04:29.360Z,11.67
2023-05-15T18:06:56.601Z,12.10
2023-05-15T18:09:24.975Z,11.73
2023-05-15T18:11:52.410Z,14.17
2023-05-15T18:14:20.320Z,11.40
2023-05-15T18:16:47.576Z,12.07
2023-05-15T18:19:15.213Z,11.20
2023-05-15T18:21:44.004Z,19.27
2023-05-15T18:24:11.324Z,14.17
2023-05-15T18:26:38.600Z,11.17
2023-05-15T18:29:05.865Z,11.00
2023-05-15T18:31:34.123Z,13.70
2023-05-15T18:34:03.331Z,13.33
2023-05-15T18:36:30.697Z,12.50
2023-05-15T18:38:58.075Z,9.80
2023-05-15T18:41:26.789Z,10.77
2023-05-15T18:43:54.021Z,11.47
2023-05-15T18:46:22.149Z,12.07
2023-05-15T18:48:50.456Z,12.17
2023-05-15T18:51:17.645Z,11.80
2023-05-15T18:53:45.026Z,11.30
2023-05-15T18:56:13.289Z,11.23
2023-05-15T18:58:40.633Z,11.87
2023-05-15T19:01:09.938Z,14.57
2023-05-15T19:03:37.169Z,16.50
2023-05-15T19:06:04.502Z,12.27
2023-05-15T19:08:31.829Z,12.27
2023-05-15T19:11:01.363Z,14.43
2023-05-15T19:13:32.463Z,13.73
2023-05-15T19:15:59.733Z,13.13
2023-05-15T19:18:26.959Z,12.10
2023-05-15T19:20:54.236Z,10.73
2023-05-15T19:23:21.579Z,12.93
2023-05-15T19:25:48.817Z,15.60
2023-05-15T19:28:16.062Z,14.40
2023-05-15T19:30:43.318Z,12.80
2023-05-15T19:33:13.761Z,13.00
2023-05-15T19:35:41.095Z,15.27
2023-05-15T19:38:08.474Z,14.90
2023-05-15T19:40:36.383Z,16.20
2023-05-15T19:43:04.184Z,13.00
2023-05-15T19:45:31.414Z,19.47
2023-05-15T19:48:01.212Z,13.63
2023-05-15T19:50:28.734Z,13.87
2023-05-15T19:52:57.471Z,12.30
2023-05-15T19:55:24.903Z,13.30
2023-05-15T19:57:56.644Z,13.73
2023-05-15T20:00:28.735Z,13.70
2023-05-15T20:02:57.532Z,13.07
2023-05-15T20:05:24.717Z,13.57
2023-05-15T20:07:53.202Z,14.83
2023-05-15T20:10:20.787Z,14.63
2023-05-15T20:12:48.291Z,13.30
2023-05-15T20:15:16.204Z,15.40
2023-05-15T20:17:44.135Z,14.60
2023-05-15T20:20:12.070Z,15.33
2023-05-15T20:22:39.780Z,14.10
2023-05-15T20:25:07.360Z,14.77
2023-05-15T20:27:34.823Z,16.27
2023-05-15T20:30:02.618Z,13.67
2023-05-15T20:32:31.881Z,14.57
2023-05-15T20:35:00.467Z,14.03
2023-05-15T20:37:30.203Z,15.27
2023-05-15T20:40:00.421Z,14.30
2023-05-15T20:42:28.340Z,14.67
2023-05-15T20:44:55.674Z,15.67
2023-05-15T20:47:23.171Z,15.67
2023-05-15T20:49:50.766Z,14.90
2023-05-15T20:52:18.054Z,13.30
2023-05-15T20:54:45.331Z,14.57
2023-05-15T20:57:12.545Z,22.70
2023-05-15T20:59:39.746Z,16.60
2023-05-15T21:02:07.708Z,15.20
2023-05-15T21:04:36.203Z,16.50
2023-05-15T21:07:04.139Z,15.63
2023-05-15T21:09:31.578Z,16.67
2023-05-15T21:11:59.769Z,16.27
2023-05-15T21:14:27.658Z,16.33
2023-05-15T21:16:56.554Z,17.50
2023-05-15T21:19:24.733Z,15.93
2023-05-15T21:21:54.959Z,15.83
2023-05-15T21:24:22.393Z,18.27
2023-05-15T21:26:49.586Z,17.07
2023-05-15T21:29:16.906Z,18.63
2023-05-15T21:31:45.792Z,22.13
2023-05-15T21:34:13.523Z,19.60
2023-05-15T21:36:40.842Z,22.90
2023-05-15T21:39:09.379Z,26.50
2023-05-15T21:41:36.554Z,24.67
2023-05-15T21:44:03.706Z,27.73
2023-05-15T21:46:30.868Z,24.17
2023-05-15T21:48:59.650Z,25.90
2023-05-15T21:51:26.830Z,25.67
2023-05-15T21:53:55.068Z,28.80
2023-05-15T21:56:22.505Z,31.60
2023-05-15T21:58:49.662Z,28.33
2023-05-15T22:01:17.490Z,34.40
2023-05-15T22:03:46.199Z,31.93
2023-05-15T22:06:13.546Z,34.33
2023-05-15T22:08:40.761Z,26.90
2023-05-15T22:11:08.158Z,30.40
2023-05-15T22:13:35.356Z,31.47
2023-05-15T22:16:02.642Z,34.80
2023-05-15T22:18:29.988Z,33.87
2023-05-15T22:20:57.700Z,33.43
2023-05-15T22:23:24.917Z,33.90
2023-05-15T22:25:52.151Z,35.77
2023-05-15T22:28:21.116Z,32.07
2023-05-15T22:30:48.299Z,34.00
2023-05-15T22:33:15.484Z,33.37
2023-05-15T22:35:42.670Z,33.33
2023-05-15T22:38:09.896Z,34.90
2023-05-15T22:40:37.062Z,32.37
2023-05-15T22:43:04.538Z,32.00
2023-05-15T22:45:32.132Z,30.33
2023-05-15T22:47:59.399Z,31.87
2023-05-15T22:50:26.851Z,35.17
2023-05-15T22:52:54.277Z,30.73
2023-05-15T22:55:21.536Z,32.50
2023-05-15T22:57:48.700Z,30.10
2023-05-15T23:00:16.695Z,30.20
2023-05-15T23:02:44.954Z,34.10
2023-05-15T23:05:12.407Z,29.93
2023-05-15T23:07:39.957Z,33.17
2023-05-15T23:10:08.301Z,30.37
2023-05-15T23:12:36.761Z,30.57
2023-05-15T23:15:05.079Z,29.43
2023-05-15T23:17:32.606Z,30.30
2023-05-15T23:19:59.921Z,33.67
2023-05-15T23:22:27.264Z,36.47
2023-05-15T23:24:54.549Z,33.57
2023-05-15T23:27:22.129Z,35.47
2023-05-15T23:29:51.016Z,39.23
2023-05-15T23:32:18.511Z,32.70
2023-05-15T23:34:46.390Z,35.73
2023-05-15T23:37:14.063Z,35.07
2023-05-15T23:39:41.417Z,34.90
2023-05-15T23:42:10.031Z,40.47
2023-05-15T23:44:37.459Z,37.80
2023-05-15T23:47:05.474Z,37.13
2023-05-15T23:49:33.509Z,33.70
2023-05-15T23:52:00.836Z,37.90
2023-05-15T23:54:28.017Z,32.90
2023-05-15T23:56:57.327Z,33.77
2023-05-15T23:59:24.720Z,38.50
